createdAt,value
2018-08-23T00:00:48.703Z,0
2018-08-23T00:01:48.430Z,0
2018-08-23T00:02:48.423Z,0
2018-08-23T00:03:48.723Z,0
2018-08-23T00:04:47.870Z,0
2018-08-23T00:05:48.383Z,0
2018-08-23T00:06:48.650Z,0
2018-08-23T00:07:48.375Z,0
2018-08-23T00:08:48.376Z,0
2018-08-23T00:09:48.379Z,0
2018-08-23T00:10:48.624Z,0
2018-08-23T00:11:48.080Z,0
2018-08-23T00:12:48.077Z,0
2018-08-23T00:13:48.801Z,0
2018-08-23T00:14:48.302Z,0
2018-08-23T00:15:48.302Z,0
2018-08-23T00:16:49.002Z,0
2018-08-23T00:17:48.545Z,0
2018-08-23T00:18:48.007Z,0
2018-08-23T00:19:48.258Z,0
2018-08-23T00:20:47.986Z,0
2018-08-23T00:21:47.981Z,0
2018-08-23T00:22:48.495Z,0
2018-08-23T00:23:48.237Z,0
2018-08-23T00:24:47.955Z,0
2018-08-23T00:25:48.472Z,0
2018-08-23T00:26:48.466Z,0
2018-08-23T00:27:47.934Z,0
2018-08-23T00:28:48.450Z,0
2018-08-23T00:29:48.699Z,0
2018-08-23T00:30:48.421Z,0
2018-08-23T00:31:48.425Z,0
2018-08-23T00:32:48.412Z,0
2018-08-23T00:33:48.395Z,0
2018-08-23T00:34:48.386Z,0
2018-08-23T00:35:48.117Z,0
2018-08-23T00:36:48.370Z,0
2018-08-23T00:37:48.096Z,0
2018-08-23T00:38:48.092Z,0
2018-08-23T00:39:48.077Z,0
2018-08-23T00:40:48.073Z,0
2018-08-23T00:41:48.059Z,0
2018-08-23T00:42:47.781Z,0
2018-08-23T00:43:47.775Z,0
2018-08-23T00:44:48.292Z,0
2018-08-23T00:45:48.027Z,0
2018-08-23T00:46:48.551Z,0
2018-08-23T00:47:48.268Z,0
2018-08-23T00:48:48.036Z,0
2018-08-23T00:49:47.717Z,0
2018-08-23T00:50:48.241Z,0
2018-08-23T00:51:48.235Z,0
2018-08-23T00:52:48.213Z,0
2018-08-23T00:53:48.148Z,0
2018-08-23T00:54:47.677Z,0
2018-08-23T00:55:47.403Z,0
2018-08-23T00:56:47.657Z,0
2018-08-23T00:57:47.644Z,0
2018-08-23T00:58:48.207Z,0
2018-08-23T00:59:48.156Z,0
2018-08-23T01:00:47.876Z,0
2018-08-23T01:01:47.603Z,0
2018-08-23T01:02:47.589Z,0
2018-08-23T01:03:48.393Z,0
2018-08-23T01:04:48.109Z,0
2018-08-23T01:05:48.095Z,0
2018-08-23T01:06:48.347Z,0
2018-08-23T01:07:48.083Z,0
2018-08-23T01:08:47.547Z,0
2018-08-23T01:09:48.321Z,0
2018-08-23T01:10:47.774Z,0
2018-08-23T01:11:47.521Z,0
2018-08-23T01:12:47.505Z,0
2018-08-23T01:13:47.275Z,0
2018-08-23T01:14:47.481Z,0
2018-08-23T01:15:47.996Z,0
2018-08-23T01:16:47.998Z,0
2018-08-23T01:17:47.979Z,0
2018-08-23T01:18:47.451Z,0
2018-08-23T01:19:47.957Z,0
2018-08-23T01:20:47.950Z,0
2018-08-23T01:21:47.672Z,0
2018-08-23T01:22:47.402Z,0
2018-08-23T01:23:47.937Z,0
2018-08-23T01:24:47.910Z,0
2018-08-23T01:25:47.653Z,0
2018-08-23T01:26:47.622Z,0
2018-08-23T01:27:47.349Z,0
2018-08-23T01:28:47.604Z,0
2018-08-23T01:29:47.868Z,0
2018-08-23T01:30:47.843Z,0
2018-08-23T01:31:48.107Z,0
2018-08-23T01:32:47.575Z,0
2018-08-23T01:33:47.568Z,0
2018-08-23T01:34:47.555Z,0
2018-08-23T01:35:47.544Z,0
2018-08-23T01:36:47.787Z,0
2018-08-23T01:37:47.782Z,0
2018-08-23T01:38:47.768Z,0
2018-08-23T01:39:47.503Z,0
2018-08-23T01:40:47.756Z,0
2018-08-23T01:41:48.024Z,0
2018-08-23T01:42:47.520Z,0
2018-08-23T01:43:47.461Z,0
2018-08-23T01:44:47.464Z,0
2018-08-23T01:45:47.704Z,0
2018-08-23T01:46:47.701Z,0
2018-08-23T01:47:47.697Z,0
2018-08-23T01:48:47.142Z,0
2018-08-23T01:49:47.671Z,0
2018-08-23T01:50:47.397Z,0
2018-08-23T01:51:47.387Z,0
2018-08-23T01:52:47.108Z,0
2018-08-23T01:53:47.360Z,0
2018-08-23T01:54:47.619Z,0
2018-08-23T01:55:47.358Z,0
2018-08-23T01:56:47.601Z,0
2018-08-23T01:57:47.582Z,0
2018-08-23T01:58:47.320Z,0
2018-08-23T01:59:47.315Z,0
2018-08-23T02:00:47.301Z,0
2018-08-23T02:01:47.023Z,0
2018-08-23T02:02:47.534Z,0
2018-08-23T02:03:47.262Z,0
2018-08-23T02:04:47.510Z,0
2018-08-23T02:05:47.512Z,0
2018-08-23T02:06:47.227Z,0
2018-08-23T02:07:47.747Z,0
2018-08-23T02:08:46.687Z,0
2018-08-23T02:09:46.984Z,0
2018-08-23T02:10:46.926Z,0
2018-08-23T02:11:46.920Z,0
2018-08-23T02:12:47.177Z,0
2018-08-23T02:13:46.902Z,0
2018-08-23T02:14:47.411Z,0
2018-08-23T02:15:47.406Z,0
2018-08-23T02:16:47.127Z,0
2018-08-23T02:17:47.118Z,0
2018-08-23T02:18:46.852Z,0
2018-08-23T02:19:47.102Z,0
2018-08-23T02:20:47.088Z,0
2018-08-23T02:21:46.821Z,0
2018-08-23T02:22:47.076Z,0
2018-08-23T02:23:47.054Z,0
2018-08-23T02:24:47.325Z,0
2018-08-23T02:25:47.054Z,0
2018-08-23T02:26:47.294Z,0
2018-08-23T02:27:46.761Z,0
2018-08-23T02:28:46.744Z,0
2018-08-23T02:29:47.005Z,0
2018-08-23T02:30:46.990Z,0
2018-08-23T02:31:46.985Z,0
2018-08-23T02:32:47.235Z,0
2018-08-23T02:33:47.270Z,0
2018-08-23T02:34:46.414Z,0
2018-08-23T02:35:47.472Z,0
2018-08-23T02:36:46.932Z,0
2018-08-23T02:37:47.177Z,0
2018-08-23T02:38:46.909Z,0
2018-08-23T02:39:46.635Z,0
2018-08-23T02:40:46.886Z,0
2018-08-23T02:41:47.142Z,0
2018-08-23T02:42:46.869Z,0
2018-08-23T02:43:46.852Z,0
2018-08-23T02:44:47.653Z,0
2018-08-23T02:45:46.589Z,0
2018-08-23T02:46:46.565Z,0
2018-08-23T02:47:47.356Z,0
2018-08-23T02:48:47.342Z,0
2018-08-23T02:49:46.804Z,0
2018-08-23T02:50:46.775Z,0
2018-08-23T02:51:46.826Z,0
2018-08-23T02:52:46.492Z,0
2018-08-23T02:53:47.159Z,0
2018-08-23T02:54:47.057Z,0
2018-08-23T02:55:46.999Z,0
2018-08-23T02:56:46.986Z,0
2018-08-23T02:57:46.182Z,0
2018-08-23T02:58:46.702Z,0
2018-08-23T02:59:46.689Z,0
2018-08-23T03:00:47.500Z,0
2018-08-23T03:01:46.688Z,0
2018-08-23T03:02:46.660Z,0
2018-08-23T03:03:46.639Z,0
2018-08-23T03:04:46.367Z,0
2018-08-23T03:05:47.155Z,0
2018-08-23T03:06:46.893Z,0
2018-08-23T03:07:46.866Z,0
2018-08-23T03:08:46.863Z,0
2018-08-23T03:09:46.856Z,0
2018-08-23T03:10:46.621Z,0
2018-08-23T03:11:46.561Z,0
2018-08-23T03:12:46.562Z,0
2018-08-23T03:13:46.543Z,0
2018-08-23T03:14:46.811Z,0
2018-08-23T03:15:46.516Z,0
2018-08-23T03:16:46.515Z,0
2018-08-23T03:17:46.499Z,0
2018-08-23T03:18:46.486Z,0
2018-08-23T03:19:46.470Z,0
2018-08-23T03:20:46.729Z,0
2018-08-23T03:21:46.459Z,0
2018-08-23T03:22:46.719Z,0
2018-08-23T03:23:46.427Z,0
2018-08-23T03:24:46.152Z,0
2018-08-23T03:25:46.159Z,0
2018-08-23T03:26:46.403Z,0
2018-08-23T03:27:46.401Z,0
2018-08-23T03:28:46.375Z,0
2018-08-23T03:29:46.369Z,0
2018-08-23T03:30:46.627Z,0
2018-08-23T03:31:45.824Z,0
2018-08-23T03:32:46.875Z,0
2018-08-23T03:33:46.323Z,0
2018-08-23T03:34:46.582Z,0
2018-08-23T03:35:46.590Z,0
2018-08-23T03:36:46.031Z,0
2018-08-23T03:37:46.563Z,0
2018-08-23T03:38:46.004Z,0
2018-08-23T03:39:46.530Z,0
2018-08-23T03:40:46.519Z,0
2018-08-23T03:41:46.242Z,0
2018-08-23T03:42:46.225Z,0
2018-08-23T03:43:46.489Z,0
2018-08-23T03:44:46.255Z,0
2018-08-23T03:45:45.928Z,0
2018-08-23T03:46:46.705Z,0
2018-08-23T03:47:45.907Z,0
2018-08-23T03:48:45.903Z,0
2018-08-23T03:49:46.158Z,0
2018-08-23T03:50:45.870Z,0
2018-08-23T03:51:46.388Z,0
2018-08-23T03:52:46.253Z,0
2018-08-23T03:53:46.637Z,0
2018-08-23T03:54:45.829Z,0
2018-08-23T03:55:46.084Z,0
2018-08-23T03:56:46.339Z,0
2018-08-23T03:57:46.322Z,0
2018-08-23T03:58:45.788Z,0
2018-08-23T03:59:46.037Z,0
2018-08-23T04:00:46.031Z,0
2018-08-23T04:01:46.281Z,0
2018-08-23T04:02:46.267Z,0
2018-08-23T04:03:45.472Z,0
2018-08-23T04:04:45.987Z,0
2018-08-23T04:05:45.447Z,0
2018-08-23T04:06:46.017Z,0
2018-08-23T04:07:45.964Z,0
2018-08-23T04:08:45.940Z,0
2018-08-23T04:09:45.670Z,0
2018-08-23T04:10:45.386Z,0
2018-08-23T04:11:46.170Z,0
2018-08-23T04:12:45.893Z,0
2018-08-23T04:13:45.628Z,0
2018-08-23T04:14:45.603Z,0
2018-08-23T04:15:46.144Z,0
2018-08-23T04:16:46.114Z,0
2018-08-23T04:17:45.837Z,0
2018-08-23T04:18:45.827Z,0
2018-08-23T04:19:46.084Z,0
2018-08-23T04:20:46.071Z,0
2018-08-23T04:21:46.061Z,0
2018-08-23T04:22:46.208Z,0
2018-08-23T04:23:45.518Z,0
2018-08-23T04:24:46.028Z,0
2018-08-23T04:25:45.491Z,0
2018-08-23T04:26:45.481Z,0
2018-08-23T04:27:46.003Z,0
2018-08-23T04:28:45.725Z,0
2018-08-23T04:29:45.710Z,0
2018-08-23T04:30:45.956Z,0
2018-08-23T04:31:45.687Z,0
2018-08-23T04:32:45.666Z,0
2018-08-23T04:33:45.665Z,0
2018-08-23T04:34:45.383Z,5
2018-08-23T04:35:45.375Z,5
2018-08-23T04:36:45.624Z,5
2018-08-23T04:37:45.359Z,5
2018-08-23T04:38:45.345Z,5
2018-08-23T04:39:45.336Z,5
2018-08-23T04:40:45.855Z,5
2018-08-23T04:41:45.836Z,5
2018-08-23T04:42:46.088Z,5
2018-08-23T04:43:45.051Z,5
2018-08-23T04:44:45.274Z,5
2018-08-23T04:45:45.522Z,5
2018-08-23T04:46:45.511Z,5
2018-08-23T04:47:45.505Z,10
2018-08-23T04:48:45.488Z,10
2018-08-23T04:49:45.488Z,10
2018-08-23T04:50:45.476Z,10
2018-08-23T04:51:45.991Z,10
2018-08-23T04:52:45.711Z,10
2018-08-23T04:53:45.910Z,10
2018-08-23T04:54:45.685Z,10
2018-08-23T04:55:45.424Z,10
2018-08-23T04:56:45.397Z,10
2018-08-23T04:57:45.400Z,15
2018-08-23T04:58:45.124Z,15
2018-08-23T04:59:45.636Z,15
2018-08-23T05:00:45.361Z,15
2018-08-23T05:01:45.620Z,15
2018-08-23T05:02:45.601Z,15
2018-08-23T05:03:45.592Z,15
2018-08-23T05:04:45.590Z,15
2018-08-23T05:05:45.583Z,20
2018-08-23T05:06:45.308Z,20
2018-08-23T05:07:45.286Z,20
2018-08-23T05:08:44.739Z,20
2018-08-23T05:09:45.791Z,20
2018-08-23T05:10:45.511Z,20
2018-08-23T05:11:45.286Z,20
2018-08-23T05:12:45.491Z,25
2018-08-23T05:13:45.213Z,25
2018-08-23T05:14:45.486Z,25
2018-08-23T05:15:45.447Z,25
2018-08-23T05:16:44.916Z,25
2018-08-23T05:17:45.438Z,25
2018-08-23T05:18:45.185Z,25
2018-08-23T05:19:45.407Z,30
2018-08-23T05:20:45.128Z,30
2018-08-23T05:21:45.130Z,30
2018-08-23T05:22:44.844Z,30
2018-08-23T05:23:45.099Z,30
2018-08-23T05:24:44.821Z,30
2018-08-23T05:25:45.334Z,35
2018-08-23T05:26:45.328Z,35
2018-08-23T05:27:44.790Z,35
2018-08-23T05:28:45.302Z,35
2018-08-23T05:29:44.849Z,40
2018-08-23T05:30:45.278Z,40
2018-08-23T05:31:45.007Z,40
2018-08-23T05:32:45.526Z,40
2018-08-23T05:33:45.246Z,40
2018-08-23T05:34:44.978Z,40
2018-08-23T05:35:45.498Z,45
2018-08-23T05:36:45.471Z,45
2018-08-23T05:37:45.220Z,45
2018-08-23T05:38:45.191Z,45
2018-08-23T05:39:45.447Z,45
2018-08-23T05:40:44.900Z,45
2018-08-23T05:41:44.892Z,45
2018-08-23T05:42:44.616Z,50
2018-08-23T05:43:44.875Z,50
2018-08-23T05:44:44.860Z,50
2018-08-23T05:45:44.583Z,50
2018-08-23T05:46:44.839Z,50
2018-08-23T05:47:45.429Z,50
2018-08-23T05:48:45.083Z,55
2018-08-23T05:49:45.084Z,55
2018-08-23T05:50:44.787Z,55
2018-08-23T05:51:45.046Z,60
2018-08-23T05:52:44.766Z,60
2018-08-23T05:53:45.022Z,60
2018-08-23T05:54:44.746Z,60
2018-08-23T05:55:44.740Z,60
2018-08-23T05:56:44.722Z,60
2018-08-23T05:57:44.451Z,60
2018-08-23T05:58:45.254Z,60
2018-08-23T05:59:44.954Z,60
2018-08-23T06:00:44.953Z,60
2018-08-23T06:01:44.408Z,60
2018-08-23T06:02:44.830Z,60
2018-08-23T06:03:44.923Z,60
2018-08-23T06:04:44.642Z,60
2018-08-23T06:05:44.636Z,65
2018-08-23T06:06:44.618Z,65
2018-08-23T06:07:44.606Z,65
2018-08-23T06:08:44.864Z,70
2018-08-23T06:09:44.373Z,70
2018-08-23T06:10:44.581Z,70
2018-08-23T06:11:45.104Z,70
2018-08-23T06:12:44.817Z,70
2018-08-23T06:13:44.544Z,70
2018-08-23T06:14:44.534Z,75
2018-08-23T06:15:44.799Z,75
2018-08-23T06:16:44.248Z,75
2018-08-23T06:17:44.765Z,80
2018-08-23T06:18:44.231Z,80
2018-08-23T06:19:44.236Z,80
2018-08-23T06:20:45.087Z,80
2018-08-23T06:21:44.747Z,85
2018-08-23T06:22:44.507Z,90
2018-08-23T06:23:44.177Z,90
2018-08-23T06:24:44.439Z,100
2018-08-23T06:25:44.427Z,100
2018-08-23T06:26:44.413Z,100
2018-08-23T06:27:44.599Z,105
2018-08-23T06:28:44.923Z,105
2018-08-23T06:29:44.666Z,100
2018-08-23T06:30:44.113Z,95
2018-08-23T06:31:44.620Z,90
2018-08-23T06:32:44.416Z,85
2018-08-23T06:33:45.392Z,90
2018-08-23T06:34:44.333Z,95
2018-08-23T06:35:44.669Z,100
2018-08-23T06:36:44.569Z,105
2018-08-23T06:37:44.031Z,110
2018-08-23T06:38:44.853Z,115
2018-08-23T06:39:44.289Z,120
2018-08-23T06:40:44.798Z,115
2018-08-23T06:41:44.002Z,115
2018-08-23T06:42:44.254Z,115
2018-08-23T06:43:44.516Z,120
2018-08-23T06:44:44.983Z,120
2018-08-23T06:45:44.213Z,115
2018-08-23T06:46:44.218Z,110
2018-08-23T06:47:44.195Z,105
2018-08-23T06:48:44.195Z,105
2018-08-23T06:49:43.650Z,110
2018-08-23T06:50:44.462Z,120
2018-08-23T06:51:44.689Z,120
2018-08-23T06:52:44.143Z,125
2018-08-23T06:53:43.865Z,125
2018-08-23T06:54:44.601Z,115
2018-08-23T06:55:44.651Z,110
2018-08-23T06:56:44.647Z,115
2018-08-23T06:57:43.828Z,110
2018-08-23T06:58:44.427Z,110
2018-08-23T06:59:44.614Z,110
2018-08-23T07:00:44.328Z,110
2018-08-23T07:01:44.330Z,110
2018-08-23T07:02:44.581Z,115
2018-08-23T07:03:43.774Z,115
2018-08-23T07:04:44.564Z,115
2018-08-23T07:05:43.498Z,115
2018-08-23T07:06:44.138Z,115
2018-08-23T07:07:44.270Z,115
2018-08-23T07:08:43.726Z,115
2018-08-23T07:09:44.250Z,115
2018-08-23T07:10:44.026Z,115
2018-08-23T07:11:44.512Z,115
2018-08-23T07:12:44.226Z,120
2018-08-23T07:13:44.223Z,120
2018-08-23T07:14:44.201Z,125
2018-08-23T07:15:44.201Z,125
2018-08-23T07:16:44.190Z,125
2018-08-23T07:17:44.727Z,125
2018-08-23T07:18:44.427Z,125
2018-08-23T07:19:44.158Z,120
2018-08-23T07:20:43.890Z,120
2018-08-23T07:21:43.877Z,120
2018-08-23T07:22:44.247Z,120
2018-08-23T07:23:43.594Z,120
2018-08-23T07:24:44.392Z,120
2018-08-23T07:25:43.570Z,120
2018-08-23T07:26:44.202Z,120
2018-08-23T07:27:44.082Z,120
2018-08-23T07:28:44.087Z,120
2018-08-23T07:29:43.837Z,120
2018-08-23T07:30:44.056Z,120
2018-08-23T07:31:43.522Z,120
2018-08-23T07:32:43.773Z,120
2018-08-23T07:33:43.803Z,120
2018-08-23T07:34:43.750Z,120
2018-08-23T07:35:43.487Z,120
2018-08-23T07:36:44.270Z,120
2018-08-23T07:37:43.727Z,125
2018-08-23T07:38:43.715Z,120
2018-08-23T07:39:44.016Z,125
2018-08-23T07:40:44.296Z,120
2018-08-23T07:41:43.961Z,120
2018-08-23T07:42:43.950Z,120
2018-08-23T07:43:43.673Z,120
2018-08-23T07:44:43.937Z,120
2018-08-23T07:45:43.930Z,120
2018-08-23T07:46:43.641Z,120
2018-08-23T07:47:44.176Z,115
2018-08-23T07:48:43.545Z,115
2018-08-23T07:49:43.969Z,115
2018-08-23T07:50:43.904Z,120
2018-08-23T07:51:43.347Z,120
2018-08-23T07:52:43.959Z,120
2018-08-23T07:53:43.585Z,115
2018-08-23T07:54:44.158Z,115
2018-08-23T07:55:43.827Z,115
2018-08-23T07:56:43.564Z,120
2018-08-23T07:57:43.544Z,120
2018-08-23T07:58:43.585Z,125
2018-08-23T07:59:43.530Z,130
2018-08-23T08:00:44.081Z,135
2018-08-23T08:01:43.514Z,140
2018-08-23T08:02:43.511Z,145
2018-08-23T08:03:43.832Z,150
2018-08-23T08:04:43.434Z,140
2018-08-23T08:05:43.473Z,145
2018-08-23T08:06:43.475Z,140
2018-08-23T08:07:43.723Z,140
2018-08-23T08:08:43.450Z,140
2018-08-23T08:09:43.445Z,135
2018-08-23T08:10:43.435Z,140
2018-08-23T08:11:43.704Z,140
2018-08-23T08:12:43.724Z,145
2018-08-23T08:13:43.437Z,145
2018-08-23T08:14:43.985Z,145
2018-08-23T08:15:43.661Z,145
2018-08-23T08:16:43.120Z,150
2018-08-23T08:17:43.910Z,150
2018-08-23T08:18:43.631Z,165
2018-08-23T08:19:43.939Z,170
2018-08-23T08:20:43.399Z,175
2018-08-23T08:21:43.832Z,170
2018-08-23T08:22:43.603Z,170
2018-08-23T08:23:43.607Z,175
2018-08-23T08:24:43.106Z,185
2018-08-23T08:25:43.579Z,195
2018-08-23T08:26:43.323Z,195
2018-08-23T08:27:43.558Z,255
2018-08-23T08:28:42.769Z,335
2018-08-23T08:29:43.811Z,270
2018-08-23T08:30:43.810Z,220
2018-08-23T08:31:43.522Z,235
2018-08-23T08:32:42.992Z,245
2018-08-23T08:33:43.509Z,225
2018-08-23T08:34:42.761Z,230
2018-08-23T08:35:43.242Z,190
2018-08-23T08:36:43.219Z,185
2018-08-23T08:37:43.214Z,165
2018-08-23T08:38:43.485Z,165
2018-08-23T08:39:43.464Z,170
2018-08-23T08:40:43.196Z,180
2018-08-23T08:41:43.193Z,175
2018-08-23T08:42:43.184Z,190
2018-08-23T08:43:43.174Z,210
2018-08-23T08:44:43.743Z,230
2018-08-23T08:45:43.430Z,200
2018-08-23T08:46:43.428Z,200
2018-08-23T08:47:43.453Z,195
2018-08-23T08:48:43.177Z,200
2018-08-23T08:49:43.186Z,200
2018-08-23T08:50:42.859Z,210
2018-08-23T08:51:43.580Z,210
2018-08-23T08:52:42.836Z,185
2018-08-23T08:53:43.373Z,180
2018-08-23T08:54:43.036Z,170
2018-08-23T08:55:43.348Z,185
2018-08-23T08:56:43.784Z,210
2018-08-23T08:57:43.613Z,210
2018-08-23T08:58:43.081Z,210
2018-08-23T08:59:42.794Z,175
2018-08-23T09:00:42.790Z,200
2018-08-23T09:01:43.048Z,210
2018-08-23T09:02:43.314Z,235
2018-08-23T09:03:43.040Z,240
2018-08-23T09:04:43.073Z,235
2018-08-23T09:05:42.752Z,210
2018-08-23T09:06:43.012Z,185
2018-08-23T09:07:43.001Z,170
2018-08-23T09:08:43.004Z,160
2018-08-23T09:09:43.419Z,185
2018-08-23T09:10:43.516Z,245
2018-08-23T09:11:43.250Z,270
2018-08-23T09:12:42.967Z,275
2018-08-23T09:13:43.489Z,305
2018-08-23T09:14:42.696Z,280
2018-08-23T09:15:43.223Z,270
2018-08-23T09:16:42.940Z,295
2018-08-23T09:17:43.195Z,315
2018-08-23T09:18:43.679Z,325
2018-08-23T09:19:43.181Z,310
2018-08-23T09:20:43.331Z,295
2018-08-23T09:21:43.182Z,295
2018-08-23T09:22:42.368Z,295
2018-08-23T09:23:43.422Z,295
2018-08-23T09:24:43.157Z,285
2018-08-23T09:25:42.883Z,290
2018-08-23T09:26:42.874Z,265
2018-08-23T09:27:42.609Z,240
2018-08-23T09:28:42.867Z,210
2018-08-23T09:29:43.135Z,225
2018-08-23T09:30:43.135Z,225
2018-08-23T09:31:43.110Z,260
2018-08-23T09:32:42.574Z,250
2018-08-23T09:33:42.834Z,255
2018-08-23T09:34:43.088Z,260
2018-08-23T09:35:43.358Z,290
2018-08-23T09:36:43.083Z,300
2018-08-23T09:37:42.564Z,275
2018-08-23T09:38:43.073Z,250
2018-08-23T09:39:42.540Z,270
2018-08-23T09:40:43.063Z,260
2018-08-23T09:41:43.376Z,225
2018-08-23T09:42:42.780Z,250
2018-08-23T09:43:43.302Z,285
2018-08-23T09:44:42.768Z,270
2018-08-23T09:45:43.299Z,305
2018-08-23T09:46:42.505Z,330
2018-08-23T09:47:43.016Z,305
2018-08-23T09:48:43.010Z,280
2018-08-23T09:49:42.472Z,280
2018-08-23T09:50:43.260Z,260
2018-08-23T09:51:42.460Z,245
2018-08-23T09:52:42.714Z,240
2018-08-23T09:53:42.712Z,250
2018-08-23T09:54:42.712Z,225
2018-08-23T09:55:42.709Z,230
2018-08-23T09:56:43.298Z,225
2018-08-23T09:57:43.226Z,220
2018-08-23T09:58:42.480Z,285
2018-08-23T09:59:42.673Z,310
2018-08-23T10:00:42.409Z,350
2018-08-23T10:01:42.401Z,365
2018-08-23T10:02:42.404Z,370
2018-08-23T10:03:42.385Z,380
2018-08-23T10:04:43.595Z,365
2018-08-23T10:05:42.916Z,360
2018-08-23T10:06:42.642Z,440
2018-08-23T10:07:42.913Z,370
2018-08-23T10:08:42.616Z,350
2018-08-23T10:09:42.615Z,360
2018-08-23T10:10:42.662Z,335
2018-08-23T10:11:43.066Z,295
2018-08-23T10:12:42.868Z,290
2018-08-23T10:13:42.863Z,285
2018-08-23T10:14:42.851Z,290
2018-08-23T10:15:42.849Z,335
2018-08-23T10:16:42.586Z,335
2018-08-23T10:17:42.843Z,340
2018-08-23T10:18:42.832Z,360
2018-08-23T10:19:42.825Z,385
2018-08-23T10:20:43.092Z,350
2018-08-23T10:21:42.552Z,355
2018-08-23T10:22:42.803Z,295
2018-08-23T10:23:42.275Z,280
2018-08-23T10:24:42.801Z,315
2018-08-23T10:25:42.540Z,315
2018-08-23T10:26:43.460Z,300
2018-08-23T10:27:43.056Z,265
2018-08-23T10:28:42.776Z,265
2018-08-23T10:29:42.499Z,265
2018-08-23T10:30:43.029Z,285
2018-08-23T10:31:42.235Z,300
2018-08-23T10:32:42.760Z,290
2018-08-23T10:33:41.958Z,280
2018-08-23T10:34:42.474Z,380
2018-08-23T10:35:42.209Z,320
2018-08-23T10:36:42.739Z,280
2018-08-23T10:37:42.470Z,315
2018-08-23T10:38:42.727Z,285
2018-08-23T10:39:42.187Z,375
2018-08-23T10:40:42.449Z,335
2018-08-23T10:41:42.706Z,395
2018-08-23T10:42:42.448Z,430
2018-08-23T10:43:42.964Z,285
2018-08-23T10:44:42.750Z,275
2018-08-23T10:45:41.890Z,345
2018-08-23T10:46:42.409Z,245
2018-08-23T10:47:42.416Z,235
2018-08-23T10:48:42.674Z,235
2018-08-23T10:49:42.397Z,230
2018-08-23T10:50:42.622Z,215
2018-08-23T10:51:42.130Z,190
2018-08-23T10:52:42.397Z,175
2018-08-23T10:53:42.392Z,165
2018-08-23T10:54:42.317Z,185
2018-08-23T10:55:42.105Z,185
2018-08-23T10:56:42.395Z,220
2018-08-23T10:57:42.381Z,275
2018-08-23T10:58:42.394Z,285
2018-08-23T10:59:42.103Z,355
2018-08-23T11:00:42.100Z,370
2018-08-23T11:01:41.814Z,470
2018-08-23T11:02:42.886Z,505
2018-08-23T11:03:42.856Z,510
2018-08-23T11:04:42.589Z,490
2018-08-23T11:05:42.052Z,470
2018-08-23T11:06:42.317Z,640
2018-08-23T11:07:42.574Z,485
2018-08-23T11:08:42.307Z,515
2018-08-23T11:09:42.694Z,490
2018-08-23T11:10:42.562Z,515
2018-08-23T11:11:42.029Z,545
2018-08-23T11:12:42.547Z,555
2018-08-23T11:13:42.565Z,505
2018-08-23T11:14:42.809Z,590
2018-08-23T11:15:42.552Z,605
2018-08-23T11:16:43.198Z,675
2018-08-23T11:17:42.801Z,1235
2018-08-23T11:18:42.534Z,765
2018-08-23T11:19:42.263Z,1400
2018-08-23T11:20:41.995Z,1440
2018-08-23T11:21:42.518Z,1420
2018-08-23T11:22:42.267Z,1410
2018-08-23T11:23:42.531Z,1430
2018-08-23T11:24:41.992Z,1475
2018-08-23T11:25:42.288Z,1485
2018-08-23T11:26:42.004Z,1495
2018-08-23T11:27:41.986Z,1495
2018-08-23T11:28:42.253Z,1510
2018-08-23T11:29:42.735Z,1465
2018-08-23T11:30:42.310Z,1435
2018-08-23T11:31:42.790Z,1465
2018-08-23T11:32:42.266Z,1425
2018-08-23T11:33:42.266Z,1340
2018-08-23T11:34:42.537Z,1240
2018-08-23T11:35:42.005Z,1270
2018-08-23T11:36:42.843Z,1310
2018-08-23T11:37:41.742Z,1245
2018-08-23T11:38:42.537Z,1325
2018-08-23T11:39:42.536Z,1210
2018-08-23T11:40:42.293Z,440
2018-08-23T11:41:42.546Z,1460
2018-08-23T11:42:41.806Z,1405
2018-08-23T11:43:42.296Z,1505
2018-08-23T11:44:42.560Z,1315
2018-08-23T11:45:42.559Z,1485
2018-08-23T11:46:42.295Z,1000
2018-08-23T11:47:42.565Z,950
2018-08-23T11:48:42.356Z,1385
2018-08-23T11:49:42.312Z,1465
2018-08-23T11:50:42.314Z,1400
2018-08-23T11:51:42.574Z,1400
2018-08-23T11:52:42.848Z,1445
2018-08-23T11:53:43.994Z,1330
2018-08-23T11:54:42.851Z,1500
2018-08-23T11:55:42.917Z,1570
2018-08-23T11:56:42.334Z,1525
2018-08-23T11:57:42.331Z,1485
2018-08-23T11:58:42.720Z,1425
2018-08-23T11:59:42.603Z,1425
2018-08-23T12:00:42.085Z,1430
2018-08-23T12:01:42.348Z,1470
2018-08-23T12:02:42.389Z,1450
2018-08-23T12:03:42.131Z,1420
2018-08-23T12:04:42.370Z,1415
2018-08-23T12:05:42.106Z,1545
2018-08-23T12:06:42.883Z,1455
2018-08-23T12:07:42.196Z,475
2018-08-23T12:08:42.918Z,1010
2018-08-23T12:09:42.926Z,1570
2018-08-23T12:10:42.392Z,1575
2018-08-23T12:11:42.398Z,890
2018-08-23T12:12:42.661Z,1595
2018-08-23T12:13:42.671Z,1455
2018-08-23T12:14:42.680Z,1465
2018-08-23T12:15:42.404Z,1435
2018-08-23T12:16:42.439Z,1430
2018-08-23T12:17:42.955Z,1525
2018-08-23T12:18:42.694Z,860
2018-08-23T12:19:42.172Z,595
2018-08-23T12:20:42.436Z,1400
2018-08-23T12:21:42.694Z,1445
2018-08-23T12:22:42.717Z,1475
2018-08-23T12:23:42.458Z,1420
2018-08-23T12:24:42.712Z,610
2018-08-23T12:25:42.608Z,1255
2018-08-23T12:26:42.875Z,1045
2018-08-23T12:27:42.481Z,1505
2018-08-23T12:28:42.209Z,1475
2018-08-23T12:29:42.597Z,1380
2018-08-23T12:30:42.737Z,1440
2018-08-23T12:31:43.625Z,1520
2018-08-23T12:32:42.752Z,1475
2018-08-23T12:33:42.232Z,1345
2018-08-23T12:34:42.548Z,400
2018-08-23T12:35:42.246Z,455
2018-08-23T12:36:42.248Z,1415
2018-08-23T12:37:43.023Z,530
2018-08-23T12:38:42.808Z,950
2018-08-23T12:39:42.514Z,345
2018-08-23T12:40:42.521Z,370
2018-08-23T12:41:42.801Z,1355
2018-08-23T12:42:42.295Z,1400
2018-08-23T12:43:42.490Z,1395
2018-08-23T12:44:42.314Z,1360
2018-08-23T12:45:43.126Z,1380
2018-08-23T12:46:42.279Z,1305
2018-08-23T12:47:42.816Z,1190
2018-08-23T12:48:42.022Z,425
2018-08-23T12:49:43.324Z,395
2018-08-23T12:50:42.300Z,380
2018-08-23T12:51:42.834Z,285
2018-08-23T12:52:42.829Z,235
2018-08-23T12:53:42.361Z,250
2018-08-23T12:54:42.773Z,345
2018-08-23T12:55:42.581Z,825
2018-08-23T12:56:42.896Z,375
2018-08-23T12:57:42.322Z,285
2018-08-23T12:58:42.848Z,290
2018-08-23T12:59:42.578Z,275
2018-08-23T13:00:43.121Z,330
2018-08-23T13:01:43.305Z,930
2018-08-23T13:02:43.645Z,1195
2018-08-23T13:03:42.405Z,625
2018-08-23T13:04:42.595Z,1260
2018-08-23T13:05:42.608Z,1160
2018-08-23T13:06:42.595Z,995
2018-08-23T13:07:42.862Z,1175
2018-08-23T13:08:42.951Z,1155
2018-08-23T13:09:42.337Z,1045
2018-08-23T13:10:42.331Z,370
2018-08-23T13:11:42.347Z,1070
2018-08-23T13:12:42.870Z,1105
2018-08-23T13:13:42.599Z,1210
2018-08-23T13:14:42.334Z,1195
2018-08-23T13:15:42.599Z,1140
2018-08-23T13:16:42.606Z,1095
2018-08-23T13:17:42.896Z,1210
2018-08-23T13:18:42.909Z,1200
2018-08-23T13:19:42.608Z,1175
2018-08-23T13:20:42.379Z,1115
2018-08-23T13:21:42.901Z,1085
2018-08-23T13:22:42.620Z,495
2018-08-23T13:23:42.624Z,1200
2018-08-23T13:24:42.356Z,415
2018-08-23T13:25:42.887Z,555
2018-08-23T13:26:42.897Z,390
2018-08-23T13:27:43.154Z,435
2018-08-23T13:28:42.641Z,890
2018-08-23T13:29:42.626Z,680
2018-08-23T13:30:42.387Z,515
2018-08-23T13:31:42.703Z,1075
2018-08-23T13:32:42.377Z,1155
2018-08-23T13:33:42.638Z,1190
2018-08-23T13:34:42.900Z,1155
2018-08-23T13:35:42.786Z,1125
2018-08-23T13:36:43.387Z,1095
2018-08-23T13:37:42.738Z,1160
2018-08-23T13:38:42.965Z,1190
2018-08-23T13:39:42.668Z,1180
2018-08-23T13:40:42.918Z,1120
2018-08-23T13:41:42.413Z,1110
2018-08-23T13:42:43.215Z,1065
2018-08-23T13:43:43.057Z,1015
2018-08-23T13:44:42.715Z,1110
2018-08-23T13:45:43.201Z,1015
2018-08-23T13:46:42.667Z,800
2018-08-23T13:47:42.943Z,925
2018-08-23T13:48:43.204Z,1010
2018-08-23T13:49:42.690Z,1150
2018-08-23T13:50:42.946Z,1135
2018-08-23T13:51:43.213Z,450
2018-08-23T13:52:43.210Z,1195
2018-08-23T13:53:42.804Z,1235
2018-08-23T13:54:42.919Z,1140
2018-08-23T13:55:42.986Z,1100
2018-08-23T13:56:42.436Z,1050
2018-08-23T13:57:42.693Z,360
2018-08-23T13:58:42.735Z,425
2018-08-23T13:59:42.963Z,1110
2018-08-23T14:00:42.970Z,1185
2018-08-23T14:01:42.708Z,1185
2018-08-23T14:02:42.730Z,1100
2018-08-23T14:03:42.452Z,1090
2018-08-23T14:04:43.027Z,450
2018-08-23T14:05:42.460Z,325